sensor_id;sensor_type;location;lat;lon;timestamp;P1;durP1;ratioP1;P2;durP2;ratioP2
23668;SDS011;12011;47.422;15.018;2022-12-07T00:00:24;11.84;;;11.60;;
23668;SDS011;12011;47.422;15.018;2022-12-07T00:02:59;11.51;;;11.28;;
23668;SDS011;12011;47.422;15.018;2022-12-07T00:05:32;12.97;;;12.71;;
23668;SDS011;12011;47.422;15.018;2022-12-07T00:08:03;14.78;;;14.32;;
23668;SDS011;12011;47.422;15.018;2022-12-07T00:10:42;14.04;;;13.51;;
23668;SDS011;12011;47.422;15.018;2022-12-07T00:13:23;13.11;;;12.86;;
23668;SDS011;12011;47.422;15.018;2022-12-07T00:15:55;12.99;;;12.70;;
23668;SDS011;12011;47.422;15.018;2022-12-07T00:18:31;12.72;;;12.49;;
23668;SDS011;12011;47.422;15.018;2022-12-07T00:21:05;12.17;;;11.94;;
23668;SDS011;12011;47.422;15.018;2022-12-07T00:23:52;12.69;;;12.35;;
23668;SDS011;12011;47.422;15.018;2022-12-07T00:26:29;12.09;;;11.71;;
23668;SDS011;12011;47.422;15.018;2022-12-07T00:29:05;11.37;;;11.18;;
23668;SDS011;12011;47.422;15.018;2022-12-07T00:31:40;11.57;;;11.28;;
23668;SDS011;12011;47.422;15.018;2022-12-07T00:34:15;10.61;;;10.40;;
23668;SDS011;12011;47.422;15.018;2022-12-07T00:36:47;10.39;;;10.20;;
23668;SDS011;12011;47.422;15.018;2022-12-07T00:39:27;11.23;;;10.95;;
23668;SDS011;12011;47.422;15.018;2022-12-07T00:42:03;11.14;;;10.92;;
23668;SDS011;12011;47.422;15.018;2022-12-07T00:44:42;11.67;;;11.45;;
23668;SDS011;12011;47.422;15.018;2022-12-07T00:47:14;11.41;;;11.14;;
23668;SDS011;12011;47.422;15.018;2022-12-07T00:49:47;13.17;;;12.82;;
23668;SDS011;12011;47.422;15.018;2022-12-07T00:52:20;13.60;;;13.30;;
23668;SDS011;12011;47.422;15.018;2022-12-07T00:54:51;13.35;;;13.11;;
23668;SDS011;12011;47.422;15.018;2022-12-07T00:57:24;12.62;;;12.34;;
23668;SDS011;12011;47.422;15.018;2022-12-07T01:00:00;13.37;;;13.07;;
23668;SDS011;12011;47.422;15.018;2022-12-07T01:02:36;13.47;;;13.12;;
23668;SDS011;12011;47.422;15.018;2022-12-07T01:05:09;13.12;;;12.73;;
23668;SDS011;12011;47.422;15.018;2022-12-07T01:07:39;12.41;;;12.14;;
23668;SDS011;12011;47.422;15.018;2022-12-07T01:10:12;12.63;;;12.31;;
23668;SDS011;12011;47.422;15.018;2022-12-07T01:12:48;13.58;;;13.29;;
23668;SDS011;12011;47.422;15.018;2022-12-07T01:15:21;14.23;;;13.97;;
23668;SDS011;12011;47.422;15.018;2022-12-07T01:17:53;14.34;;;14.06;;
23668;SDS011;12011;47.422;15.018;2022-12-07T01:20:24;13.89;;;13.59;;
23668;SDS011;12011;47.422;15.018;2022-12-07T01:22:56;13.11;;;12.93;;
23668;SDS011;12011;47.422;15.018;2022-12-07T01:25:33;12.60;;;12.39;;
23668;SDS011;12011;47.422;15.018;2022-12-07T01:28:06;13.19;;;12.95;;
23668;SDS011;12011;47.422;15.018;2022-12-07T01:30:42;12.88;;;12.61;;
23668;SDS011;12011;47.422;15.018;2022-12-07T01:33:31;12.22;;;11.99;;
23668;SDS011;12011;47.422;15.018;2022-12-07T01:36:07;12.53;;;12.14;;
23668;SDS011;12011;47.422;15.018;2022-12-07T01:38:44;12.11;;;11.82;;
23668;SDS011;12011;47.422;15.018;2022-12-07T01:41:18;11.99;;;11.76;;
23668;SDS011;12011;47.422;15.018;2022-12-07T01:46:51;11.57;;;11.28;;
23668;SDS011;12011;47.422;15.018;2022-12-07T01:49:27;11.12;;;10.97;;
23668;SDS011;12011;47.422;15.018;2022-12-07T01:52:09;11.35;;;11.18;;
23668;SDS011;12011;47.422;15.018;2022-12-07T01:54:51;10.41;;;10.28;;
23668;SDS011;12011;47.422;15.018;2022-12-07T01:57:28;9.55;;;9.38;;
23668;SDS011;12011;47.422;15.018;2022-12-07T02:00:05;9.09;;;8.97;;
23668;SDS011;12011;47.422;15.018;2022-12-07T02:02:53;9.23;;;9.15;;
23668;SDS011;12011;47.422;15.018;2022-12-07T02:05:41;9.77;;;9.70;;
23668;SDS011;12011;47.422;15.018;2022-12-07T02:08:18;10.01;;;9.83;;
23668;SDS011;12011;47.422;15.018;2022-12-07T02:10:50;9.10;;;9.00;;
23668;SDS011;12011;47.422;15.018;2022-12-07T02:13:27;9.40;;;9.30;;
23668;SDS011;12011;47.422;15.018;2022-12-07T02:16:12;10.93;;;10.75;;
23668;SDS011;12011;47.422;15.018;2022-12-07T02:19:08;12.30;;;12.06;;
23668;SDS011;12011;47.422;15.018;2022-12-07T02:25:36;9.68;;;9.50;;
23668;SDS011;12011;47.422;15.018;2022-12-07T02:28:30;9.11;;;8.99;;
23668;SDS011;12011;47.422;15.018;2022-12-07T02:31:14;8.83;;;8.78;;
23668;SDS011;12011;47.422;15.018;2022-12-07T02:33:51;9.10;;;8.96;;
23668;SDS011;12011;47.422;15.018;2022-12-07T02:36:37;8.99;;;8.81;;
23668;SDS011;12011;47.422;15.018;2022-12-07T02:39:16;7.73;;;7.69;;
23668;SDS011;12011;47.422;15.018;2022-12-07T02:41:58;7.08;;;7.03;;
23668;SDS011;12011;47.422;15.018;2022-12-07T02:44:40;6.82;;;6.77;;
23668;SDS011;12011;47.422;15.018;2022-12-07T02:47:16;6.80;;;6.75;;
23668;SDS011;12011;47.422;15.018;2022-12-07T02:49:49;5.96;;;5.88;;
23668;SDS011;12011;47.422;15.018;2022-12-07T02:52:22;5.99;;;5.96;;
23668;SDS011;12011;47.422;15.018;2022-12-07T02:54:56;6.07;;;6.04;;
23668;SDS011;12011;47.422;15.018;2022-12-07T02:57:37;5.46;;;5.42;;
23668;SDS011;12011;47.422;15.018;2022-12-07T03:00:28;5.41;;;5.35;;
23668;SDS011;12011;47.422;15.018;2022-12-07T03:03:17;5.77;;;5.67;;
23668;SDS011;12011;47.422;15.018;2022-12-07T03:06:06;5.59;;;5.49;;
23668;SDS011;12011;47.422;15.018;2022-12-07T03:08:54;5.83;;;5.76;;
23668;SDS011;12011;47.422;15.018;2022-12-07T03:11:39;5.55;;;5.42;;
23668;SDS011;12011;47.422;15.018;2022-12-07T03:14:24;5.47;;;5.42;;
23668;SDS011;12011;47.422;15.018;2022-12-07T03:17:19;5.37;;;5.32;;
23668;SDS011;12011;47.422;15.018;2022-12-07T03:20:05;5.55;;;5.50;;
23668;SDS011;12011;47.422;15.018;2022-12-07T03:22:43;5.54;;;5.48;;
23668;SDS011;12011;47.422;15.018;2022-12-07T03:25:19;5.46;;;5.43;;
23668;SDS011;12011;47.422;15.018;2022-12-07T03:27:52;5.51;;;5.48;;
23668;SDS011;12011;47.422;15.018;2022-12-07T03:30:34;5.63;;;5.61;;
23668;SDS011;12011;47.422;15.018;2022-12-07T03:33:24;5.39;;;5.33;;
23668;SDS011;12011;47.422;15.018;2022-12-07T03:36:11;5.27;;;5.23;;
23668;SDS011;12011;47.422;15.018;2022-12-07T03:38:54;5.21;;;5.18;;
23668;SDS011;12011;47.422;15.018;2022-12-07T03:41:33;5.43;;;5.37;;
23668;SDS011;12011;47.422;15.018;2022-12-07T03:44:13;5.40;;;5.33;;
23668;SDS011;12011;47.422;15.018;2022-12-07T03:46:49;5.32;;;5.25;;
23668;SDS011;12011;47.422;15.018;2022-12-07T03:49:30;5.63;;;5.59;;
23668;SDS011;12011;47.422;15.018;2022-12-07T03:52:16;5.87;;;5.79;;
23668;SDS011;12011;47.422;15.018;2022-12-07T03:54:55;5.49;;;5.44;;
23668;SDS011;12011;47.422;15.018;2022-12-07T03:57:31;5.77;;;5.72;;
23668;SDS011;12011;47.422;15.018;2022-12-07T04:00:05;5.34;;;5.29;;
23668;SDS011;12011;47.422;15.018;2022-12-07T04:02:45;5.54;;;5.53;;
23668;SDS011;12011;47.422;15.018;2022-12-07T04:05:20;5.54;;;5.51;;
23668;SDS011;12011;47.422;15.018;2022-12-07T04:07:56;5.28;;;5.25;;
23668;SDS011;12011;47.422;15.018;2022-12-07T04:10:27;5.32;;;5.30;;
23668;SDS011;12011;47.422;15.018;2022-12-07T04:12:58;5.65;;;5.61;;
23668;SDS011;12011;47.422;15.018;2022-12-07T04:15:32;5.76;;;5.70;;
23668;SDS011;12011;47.422;15.018;2022-12-07T04:18:04;5.69;;;5.63;;
23668;SDS011;12011;47.422;15.018;2022-12-07T04:20:50;5.64;;;5.59;;
23668;SDS011;12011;47.422;15.018;2022-12-07T04:23:28;5.70;;;5.65;;
23668;SDS011;12011;47.422;15.018;2022-12-07T04:26:02;5.89;;;5.86;;
23668;SDS011;12011;47.422;15.018;2022-12-07T04:28:45;6.31;;;6.26;;
23668;SDS011;12011;47.422;15.018;2022-12-07T04:31:16;6.70;;;6.64;;
23668;SDS011;12011;47.422;15.018;2022-12-07T04:33:48;6.76;;;6.72;;
23668;SDS011;12011;47.422;15.018;2022-12-07T04:36:24;6.83;;;6.75;;
23668;SDS011;12011;47.422;15.018;2022-12-07T04:39:02;7.51;;;7.37;;
23668;SDS011;12011;47.422;15.018;2022-12-07T04:41:38;10.33;;;9.98;;
23668;SDS011;12011;47.422;15.018;2022-12-07T04:44:10;7.62;;;7.43;;
23668;SDS011;12011;47.422;15.018;2022-12-07T04:46:50;8.74;;;8.55;;
23668;SDS011;12011;47.422;15.018;2022-12-07T04:49:20;9.02;;;8.81;;
23668;SDS011;12011;47.422;15.018;2022-12-07T04:52:00;8.89;;;8.70;;
23668;SDS011;12011;47.422;15.018;2022-12-07T04:54:33;11.82;;;11.32;;
23668;SDS011;12011;47.422;15.018;2022-12-07T04:57:04;11.92;;;11.13;;
23668;SDS011;12011;47.422;15.018;2022-12-07T04:59:39;10.92;;;10.31;;
23668;SDS011;12011;47.422;15.018;2022-12-07T05:02:09;11.67;;;11.16;;
23668;SDS011;12011;47.422;15.018;2022-12-07T05:04:39;10.66;;;10.26;;
23668;SDS011;12011;47.422;15.018;2022-12-07T05:07:13;8.74;;;8.47;;
23668;SDS011;12011;47.422;15.018;2022-12-07T05:09:53;6.51;;;6.40;;
23668;SDS011;12011;47.422;15.018;2022-12-07T05:12:27;5.99;;;5.92;;
23668;SDS011;12011;47.422;15.018;2022-12-07T05:15:01;5.95;;;5.89;;
23668;SDS011;12011;47.422;15.018;2022-12-07T05:17:34;6.11;;;6.06;;
23668;SDS011;12011;47.422;15.018;2022-12-07T05:20:08;6.11;;;6.03;;
23668;SDS011;12011;47.422;15.018;2022-12-07T05:22:46;6.22;;;6.13;;
23668;SDS011;12011;47.422;15.018;2022-12-07T05:25:21;5.98;;;5.88;;
23668;SDS011;12011;47.422;15.018;2022-12-07T05:27:54;6.75;;;6.63;;
23668;SDS011;12011;47.422;15.018;2022-12-07T05:30:24;7.23;;;7.16;;
23668;SDS011;12011;47.422;15.018;2022-12-07T05:32:55;7.66;;;7.56;;
23668;SDS011;12011;47.422;15.018;2022-12-07T05:35:25;7.95;;;7.85;;
23668;SDS011;12011;47.422;15.018;2022-12-07T05:37:55;7.32;;;7.23;;
23668;SDS011;12011;47.422;15.018;2022-12-07T05:40:27;7.54;;;7.44;;
23668;SDS011;12011;47.422;15.018;2022-12-07T05:42:57;7.83;;;7.66;;
23668;SDS011;12011;47.422;15.018;2022-12-07T05:45:26;8.13;;;7.98;;
23668;SDS011;12011;47.422;15.018;2022-12-07T05:47:56;7.44;;;7.37;;
23668;SDS011;12011;47.422;15.018;2022-12-07T05:50:25;8.15;;;8.01;;
23668;SDS011;12011;47.422;15.018;2022-12-07T05:53:01;8.57;;;8.39;;
23668;SDS011;12011;47.422;15.018;2022-12-07T05:55:33;8.51;;;8.32;;
23668;SDS011;12011;47.422;15.018;2022-12-07T05:58:03;7.12;;;7.03;;
23668;SDS011;12011;47.422;15.018;2022-12-07T06:00:45;7.62;;;7.54;;
23668;SDS011;12011;47.422;15.018;2022-12-07T06:03:15;7.63;;;7.51;;
23668;SDS011;12011;47.422;15.018;2022-12-07T06:05:44;6.56;;;6.43;;
23668;SDS011;12011;47.422;15.018;2022-12-07T06:08:14;6.61;;;6.54;;
23668;SDS011;12011;47.422;15.018;2022-12-07T06:10:46;6.56;;;6.51;;
23668;SDS011;12011;47.422;15.018;2022-12-07T06:13:39;6.98;;;6.91;;
23668;SDS011;12011;47.422;15.018;2022-12-07T06:16:06;6.60;;;6.54;;
23668;SDS011;12011;47.422;15.018;2022-12-07T06:18:35;6.39;;;6.35;;
23668;SDS011;12011;47.422;15.018;2022-12-07T06:21:05;6.23;;;6.17;;
23668;SDS011;12011;47.422;15.018;2022-12-07T06:23:34;6.60;;;6.53;;
23668;SDS011;12011;47.422;15.018;2022-12-07T06:26:06;7.05;;;6.95;;
23668;SDS011;12011;47.422;15.018;2022-12-07T06:28:36;7.35;;;7.19;;
23668;SDS011;12011;47.422;15.018;2022-12-07T06:31:06;6.65;;;6.48;;
23668;SDS011;12011;47.422;15.018;2022-12-07T06:33:36;6.16;;;6.03;;
23668;SDS011;12011;47.422;15.018;2022-12-07T06:36:05;6.42;;;6.32;;
23668;SDS011;12011;47.422;15.018;2022-12-07T06:38:36;6.39;;;6.33;;
23668;SDS011;12011;47.422;15.018;2022-12-07T06:41:08;6.18;;;6.12;;
23668;SDS011;12011;47.422;15.018;2022-12-07T06:43:38;7.08;;;6.95;;
23668;SDS011;12011;47.422;15.018;2022-12-07T06:46:16;6.77;;;6.66;;
23668;SDS011;12011;47.422;15.018;2022-12-07T06:51:54;6.93;;;6.89;;
23668;SDS011;12011;47.422;15.018;2022-12-07T06:54:49;6.43;;;6.34;;
23668;SDS011;12011;47.422;15.018;2022-12-07T06:57:33;7.37;;;7.18;;
23668;SDS011;12011;47.422;15.018;2022-12-07T07:00:08;6.99;;;6.78;;
23668;SDS011;12011;47.422;15.018;2022-12-07T07:02:40;6.84;;;6.74;;
23668;SDS011;12011;47.422;15.018;2022-12-07T07:05:09;6.71;;;6.42;;
23668;SDS011;12011;47.422;15.018;2022-12-07T07:07:39;7.43;;;7.13;;
23668;SDS011;12011;47.422;15.018;2022-12-07T07:10:09;8.10;;;7.86;;
23668;SDS011;12011;47.422;15.018;2022-12-07T07:12:41;8.23;;;8.01;;
23668;SDS011;12011;47.422;15.018;2022-12-07T07:15:11;7.92;;;7.74;;
23668;SDS011;12011;47.422;15.018;2022-12-07T07:17:40;8.32;;;8.07;;
23668;SDS011;12011;47.422;15.018;2022-12-07T07:20:11;7.95;;;7.84;;
23668;SDS011;12011;47.422;15.018;2022-12-07T07:22:42;7.60;;;7.49;;
23668;SDS011;12011;47.422;15.018;2022-12-07T07:25:11;7.59;;;7.42;;
23668;SDS011;12011;47.422;15.018;2022-12-07T07:27:43;7.90;;;7.79;;
23668;SDS011;12011;47.422;15.018;2022-12-07T07:30:13;7.57;;;7.45;;
23668;SDS011;12011;47.422;15.018;2022-12-07T07:32:43;8.12;;;7.89;;
23668;SDS011;12011;47.422;15.018;2022-12-07T07:35:13;9.44;;;9.02;;
23668;SDS011;12011;47.422;15.018;2022-12-07T07:37:42;6.46;;;6.32;;
23668;SDS011;12011;47.422;15.018;2022-12-07T07:40:12;6.06;;;6.00;;
23668;SDS011;12011;47.422;15.018;2022-12-07T07:42:46;5.76;;;5.66;;
23668;SDS011;12011;47.422;15.018;2022-12-07T07:45:17;10.79;;;10.53;;
23668;SDS011;12011;47.422;15.018;2022-12-07T07:47:47;9.26;;;8.90;;
23668;SDS011;12011;47.422;15.018;2022-12-07T07:50:16;6.54;;;6.32;;
23668;SDS011;12011;47.422;15.018;2022-12-07T07:52:47;7.48;;;7.26;;
23668;SDS011;12011;47.422;15.018;2022-12-07T07:55:18;7.63;;;7.36;;
23668;SDS011;12011;47.422;15.018;2022-12-07T07:57:50;6.22;;;6.05;;
23668;SDS011;12011;47.422;15.018;2022-12-07T08:00:20;5.58;;;5.49;;
23668;SDS011;12011;47.422;15.018;2022-12-07T08:02:50;5.71;;;5.65;;
23668;SDS011;12011;47.422;15.018;2022-12-07T08:05:20;5.83;;;5.76;;
23668;SDS011;12011;47.422;15.018;2022-12-07T08:07:49;5.21;;;5.18;;
23668;SDS011;12011;47.422;15.018;2022-12-07T08:10:19;5.65;;;5.63;;
23668;SDS011;12011;47.422;15.018;2022-12-07T08:12:51;6.22;;;6.19;;
23668;SDS011;12011;47.422;15.018;2022-12-07T08:15:33;6.62;;;6.51;;
23668;SDS011;12011;47.422;15.018;2022-12-07T08:18:05;6.45;;;6.32;;
23668;SDS011;12011;47.422;15.018;2022-12-07T08:20:35;6.19;;;6.12;;
23668;SDS011;12011;47.422;15.018;2022-12-07T08:23:07;5.95;;;5.88;;
23668;SDS011;12011;47.422;15.018;2022-12-07T08:25:38;5.12;;;5.09;;
23668;SDS011;12011;47.422;15.018;2022-12-07T08:28:10;4.76;;;4.75;;
23668;SDS011;12011;47.422;15.018;2022-12-07T08:30:40;5.25;;;5.22;;
23668;SDS011;12011;47.422;15.018;2022-12-07T08:33:13;5.06;;;5.03;;
23668;SDS011;12011;47.422;15.018;2022-12-07T08:35:50;4.92;;;4.87;;
23668;SDS011;12011;47.422;15.018;2022-12-07T08:38:30;5.18;;;5.17;;
23668;SDS011;12011;47.422;15.018;2022-12-07T08:41:00;4.65;;;4.63;;
23668;SDS011;12011;47.422;15.018;2022-12-07T08:43:32;5.28;;;5.25;;
23668;SDS011;12011;47.422;15.018;2022-12-07T08:46:06;4.90;;;4.85;;
23668;SDS011;12011;47.422;15.018;2022-12-07T08:48:40;5.31;;;5.25;;
23668;SDS011;12011;47.422;15.018;2022-12-07T08:51:17;5.00;;;4.91;;
23668;SDS011;12011;47.422;15.018;2022-12-07T08:56:35;5.12;;;5.07;;
23668;SDS011;12011;47.422;15.018;2022-12-07T08:59:08;5.25;;;5.17;;
23668;SDS011;12011;47.422;15.018;2022-12-07T09:01:38;4.68;;;4.61;;
23668;SDS011;12011;47.422;15.018;2022-12-07T09:04:38;4.67;;;4.63;;
23668;SDS011;12011;47.422;15.018;2022-12-07T09:33:20;6.14;;;6.03;;
23668;SDS011;12011;47.422;15.018;2022-12-07T09:35:50;6.03;;;5.96;;
23668;SDS011;12011;47.422;15.018;2022-12-07T09:38:21;5.92;;;5.91;;
23668;SDS011;12011;47.422;15.018;2022-12-07T09:40:52;6.33;;;6.30;;
23668;SDS011;12011;47.422;15.018;2022-12-07T09:43:23;6.17;;;6.15;;
23668;SDS011;12011;47.422;15.018;2022-12-07T09:45:55;6.00;;;5.96;;
23668;SDS011;12011;47.422;15.018;2022-12-07T09:48:32;5.94;;;5.88;;
23668;SDS011;12011;47.422;15.018;2022-12-07T09:51:10;6.71;;;6.59;;
23668;SDS011;12011;47.422;15.018;2022-12-07T09:53:48;7.65;;;7.62;;
23668;SDS011;12011;47.422;15.018;2022-12-07T09:56:30;8.54;;;8.45;;
23668;SDS011;12011;47.422;15.018;2022-12-07T09:59:02;7.59;;;7.47;;
23668;SDS011;12011;47.422;15.018;2022-12-07T10:01:33;7.54;;;7.44;;
23668;SDS011;12011;47.422;15.018;2022-12-07T10:04:12;7.60;;;7.49;;
23668;SDS011;12011;47.422;15.018;2022-12-07T10:06:48;8.07;;;7.99;;
23668;SDS011;12011;47.422;15.018;2022-12-07T10:09:20;7.71;;;7.65;;
23668;SDS011;12011;47.422;15.018;2022-12-07T10:12:00;7.71;;;7.62;;
23668;SDS011;12011;47.422;15.018;2022-12-07T10:14:54;7.87;;;7.80;;
23668;SDS011;12011;47.422;15.018;2022-12-07T10:17:35;7.24;;;7.15;;
23668;SDS011;12011;47.422;15.018;2022-12-07T10:20:18;7.28;;;7.21;;
23668;SDS011;12011;47.422;15.018;2022-12-07T10:22:57;7.34;;;7.24;;
23668;SDS011;12011;47.422;15.018;2022-12-07T10:25:31;6.89;;;6.78;;
23668;SDS011;12011;47.422;15.018;2022-12-07T10:28:10;6.34;;;6.28;;
23668;SDS011;12011;47.422;15.018;2022-12-07T10:30:48;5.78;;;5.72;;
23668;SDS011;12011;47.422;15.018;2022-12-07T10:33:30;6.39;;;6.34;;
23668;SDS011;12011;47.422;15.018;2022-12-07T10:36:19;5.96;;;5.93;;
23668;SDS011;12011;47.422;15.018;2022-12-07T10:38:53;5.76;;;5.75;;
23668;SDS011;12011;47.422;15.018;2022-12-07T10:41:31;5.49;;;5.46;;
23668;SDS011;12011;47.422;15.018;2022-12-07T10:44:00;5.72;;;5.68;;
23668;SDS011;12011;47.422;15.018;2022-12-07T10:49:37;5.64;;;5.64;;
23668;SDS011;12011;47.422;15.018;2022-12-07T10:52:42;5.57;;;5.54;;
23668;SDS011;12011;47.422;15.018;2022-12-07T10:55:34;5.77;;;5.70;;
23668;SDS011;12011;47.422;15.018;2022-12-07T10:58:36;5.89;;;5.83;;
23668;SDS011;12011;47.422;15.018;2022-12-07T11:01:25;6.30;;;6.24;;
23668;SDS011;12011;47.422;15.018;2022-12-07T11:04:19;6.33;;;6.25;;
23668;SDS011;12011;47.422;15.018;2022-12-07T11:07:02;6.38;;;6.30;;
23668;SDS011;12011;47.422;15.018;2022-12-07T11:09:55;6.45;;;6.39;;
23668;SDS011;12011;47.422;15.018;2022-12-07T11:12:41;5.98;;;5.92;;
23668;SDS011;12011;47.422;15.018;2022-12-07T11:15:31;6.32;;;6.25;;
23668;SDS011;12011;47.422;15.018;2022-12-07T11:18:22;6.06;;;5.98;;
23668;SDS011;12011;47.422;15.018;2022-12-07T11:21:04;6.20;;;6.18;;
23668;SDS011;12011;47.422;15.018;2022-12-07T11:23:46;6.11;;;6.10;;
23668;SDS011;12011;47.422;15.018;2022-12-07T11:26:31;5.94;;;5.92;;
23668;SDS011;12011;47.422;15.018;2022-12-07T11:29:28;6.17;;;6.09;;
23668;SDS011;12011;47.422;15.018;2022-12-07T11:32:21;5.55;;;5.48;;
23668;SDS011;12011;47.422;15.018;2022-12-07T11:35:13;5.45;;;5.43;;
23668;SDS011;12011;47.422;15.018;2022-12-07T11:37:56;5.54;;;5.53;;
23668;SDS011;12011;47.422;15.018;2022-12-07T11:40:36;5.87;;;5.86;;
23668;SDS011;12011;47.422;15.018;2022-12-07T11:43:13;5.73;;;5.70;;
23668;SDS011;12011;47.422;15.018;2022-12-07T11:45:52;6.03;;;5.97;;
23668;SDS011;12011;47.422;15.018;2022-12-07T11:48:31;6.24;;;6.19;;
23668;SDS011;12011;47.422;15.018;2022-12-07T11:51:07;6.87;;;6.76;;
23668;SDS011;12011;47.422;15.018;2022-12-07T11:53:41;6.90;;;6.80;;
23668;SDS011;12011;47.422;15.018;2022-12-07T11:56:21;6.26;;;6.19;;
23668;SDS011;12011;47.422;15.018;2022-12-07T11:58:57;6.22;;;6.16;;
23668;SDS011;12011;47.422;15.018;2022-12-07T12:01:41;5.88;;;5.84;;
23668;SDS011;12011;47.422;15.018;2022-12-07T12:04:30;6.28;;;6.23;;
23668;SDS011;12011;47.422;15.018;2022-12-07T12:07:22;5.80;;;5.74;;
23668;SDS011;12011;47.422;15.018;2022-12-07T12:09:56;5.93;;;5.86;;
23668;SDS011;12011;47.422;15.018;2022-12-07T12:12:44;6.06;;;6.00;;
23668;SDS011;12011;47.422;15.018;2022-12-07T12:18:46;5.89;;;5.84;;
23668;SDS011;12011;47.422;15.018;2022-12-07T12:21:33;5.87;;;5.81;;
23668;SDS011;12011;47.422;15.018;2022-12-07T12:24:06;6.24;;;6.15;;
23668;SDS011;12011;47.422;15.018;2022-12-07T12:26:48;6.21;;;6.11;;
23668;SDS011;12011;47.422;15.018;2022-12-07T12:29:26;6.39;;;6.29;;
23668;SDS011;12011;47.422;15.018;2022-12-07T12:32:07;5.92;;;5.87;;
23668;SDS011;12011;47.422;15.018;2022-12-07T12:37:52;5.94;;;5.91;;
23668;SDS011;12011;47.422;15.018;2022-12-07T12:52:49;5.83;;;5.74;;
23668;SDS011;12011;47.422;15.018;2022-12-07T13:01:53;5.69;;;5.65;;
23668;SDS011;12011;47.422;15.018;2022-12-07T13:04:49;6.28;;;6.25;;
23668;SDS011;12011;47.422;15.018;2022-12-07T13:10:29;6.33;;;6.28;;
23668;SDS011;12011;47.422;15.018;2022-12-07T13:22:43;5.98;;;5.95;;
23668;SDS011;12011;47.422;15.018;2022-12-07T13:25:23;6.24;;;6.17;;
23668;SDS011;12011;47.422;15.018;2022-12-07T13:28:15;6.10;;;5.98;;
23668;SDS011;12011;47.422;15.018;2022-12-07T13:30:53;6.87;;;6.78;;
23668;SDS011;12011;47.422;15.018;2022-12-07T13:33:37;7.28;;;7.19;;
23668;SDS011;12011;47.422;15.018;2022-12-07T13:36:10;7.30;;;7.19;;
23668;SDS011;12011;47.422;15.018;2022-12-07T13:38:53;9.11;;;8.92;;
23668;SDS011;12011;47.422;15.018;2022-12-07T13:41:25;14.14;;;13.55;;
23668;SDS011;12011;47.422;15.018;2022-12-07T13:44:00;10.37;;;10.07;;
23668;SDS011;12011;47.422;15.018;2022-12-07T13:46:41;8.83;;;8.68;;
23668;SDS011;12011;47.422;15.018;2022-12-07T13:49:21;10.20;;;9.98;;
23668;SDS011;12011;47.422;15.018;2022-12-07T13:51:53;10.09;;;9.66;;
23668;SDS011;12011;47.422;15.018;2022-12-07T13:54:46;9.46;;;9.16;;
23668;SDS011;12011;47.422;15.018;2022-12-07T13:57:17;7.29;;;7.19;;
23668;SDS011;12011;47.422;15.018;2022-12-07T13:59:47;6.92;;;6.87;;
23668;SDS011;12011;47.422;15.018;2022-12-07T14:02:20;7.46;;;7.39;;
23668;SDS011;12011;47.422;15.018;2022-12-07T14:05:05;8.22;;;8.16;;
23668;SDS011;12011;47.422;15.018;2022-12-07T14:07:48;8.79;;;8.72;;
23668;SDS011;12011;47.422;15.018;2022-12-07T14:10:26;8.44;;;8.35;;
23668;SDS011;12011;47.422;15.018;2022-12-07T14:12:58;7.79;;;7.67;;
23668;SDS011;12011;47.422;15.018;2022-12-07T14:15:31;7.48;;;7.40;;
23668;SDS011;12011;47.422;15.018;2022-12-07T14:18:02;8.41;;;8.32;;
23668;SDS011;12011;47.422;15.018;2022-12-07T14:20:33;8.81;;;8.70;;
23668;SDS011;12011;47.422;15.018;2022-12-07T14:23:05;9.01;;;8.91;;
23668;SDS011;12011;47.422;15.018;2022-12-07T14:26:04;10.75;;;10.39;;
23668;SDS011;12011;47.422;15.018;2022-12-07T14:28:40;9.66;;;9.37;;
23668;SDS011;12011;47.422;15.018;2022-12-07T14:31:12;9.16;;;9.05;;
23668;SDS011;12011;47.422;15.018;2022-12-07T14:33:45;9.40;;;9.34;;
23668;SDS011;12011;47.422;15.018;2022-12-07T14:36:15;11.59;;;11.37;;
23668;SDS011;12011;47.422;15.018;2022-12-07T14:38:44;17.94;;;16.79;;
23668;SDS011;12011;47.422;15.018;2022-12-07T14:41:17;14.22;;;13.18;;
23668;SDS011;12011;47.422;15.018;2022-12-07T14:44:06;10.15;;;9.85;;
23668;SDS011;12011;47.422;15.018;2022-12-07T14:46:40;9.22;;;8.95;;
23668;SDS011;12011;47.422;15.018;2022-12-07T14:49:10;8.90;;;8.74;;
23668;SDS011;12011;47.422;15.018;2022-12-07T14:51:40;10.14;;;10.03;;
23668;SDS011;12011;47.422;15.018;2022-12-07T14:54:14;10.67;;;10.52;;
23668;SDS011;12011;47.422;15.018;2022-12-07T14:56:49;10.70;;;10.56;;
23668;SDS011;12011;47.422;15.018;2022-12-07T14:59:19;12.39;;;12.21;;
23668;SDS011;12011;47.422;15.018;2022-12-07T15:01:48;12.90;;;12.65;;
23668;SDS011;12011;47.422;15.018;2022-12-07T15:04:18;12.72;;;12.52;;
23668;SDS011;12011;47.422;15.018;2022-12-07T15:06:54;11.61;;;11.47;;
23668;SDS011;12011;47.422;15.018;2022-12-07T15:09:25;11.34;;;11.06;;
23668;SDS011;12011;47.422;15.018;2022-12-07T15:11:57;10.57;;;10.39;;
23668;SDS011;12011;47.422;15.018;2022-12-07T15:14:27;11.58;;;11.34;;
23668;SDS011;12011;47.422;15.018;2022-12-07T15:16:56;10.73;;;10.62;;
23668;SDS011;12011;47.422;15.018;2022-12-07T15:19:26;11.13;;;10.82;;
23668;SDS011;12011;47.422;15.018;2022-12-07T15:21:56;11.50;;;11.18;;
23668;SDS011;12011;47.422;15.018;2022-12-07T15:24:26;19.35;;;18.42;;
23668;SDS011;12011;47.422;15.018;2022-12-07T15:26:58;23.04;;;21.59;;
23668;SDS011;12011;47.422;15.018;2022-12-07T15:29:28;23.98;;;22.68;;
23668;SDS011;12011;47.422;15.018;2022-12-07T15:31:57;23.82;;;22.60;;
23668;SDS011;12011;47.422;15.018;2022-12-07T15:34:27;21.64;;;20.06;;
23668;SDS011;12011;47.422;15.018;2022-12-07T15:36:57;16.79;;;15.74;;
23668;SDS011;12011;47.422;15.018;2022-12-07T15:39:27;15.53;;;14.82;;
23668;SDS011;12011;47.422;15.018;2022-12-07T15:41:59;15.08;;;14.70;;
23668;SDS011;12011;47.422;15.018;2022-12-07T15:44:28;13.62;;;13.27;;
23668;SDS011;12011;47.422;15.018;2022-12-07T15:47:10;12.93;;;12.56;;
23668;SDS011;12011;47.422;15.018;2022-12-07T15:49:40;12.78;;;12.50;;
23668;SDS011;12011;47.422;15.018;2022-12-07T15:52:09;11.45;;;11.05;;
23668;SDS011;12011;47.422;15.018;2022-12-07T15:54:39;12.85;;;12.39;;
23668;SDS011;12011;47.422;15.018;2022-12-07T15:57:11;10.82;;;10.51;;
23668;SDS011;12011;47.422;15.018;2022-12-07T15:59:41;11.45;;;11.17;;
23668;SDS011;12011;47.422;15.018;2022-12-07T16:02:10;12.89;;;12.46;;
23668;SDS011;12011;47.422;15.018;2022-12-07T16:04:42;12.90;;;12.67;;
23668;SDS011;12011;47.422;15.018;2022-12-07T16:07:11;13.50;;;13.29;;
23668;SDS011;12011;47.422;15.018;2022-12-07T16:09:41;15.59;;;15.13;;
23668;SDS011;12011;47.422;15.018;2022-12-07T16:12:13;10.54;;;10.32;;
23668;SDS011;12011;47.422;15.018;2022-12-07T16:14:43;10.32;;;10.13;;
23668;SDS011;12011;47.422;15.018;2022-12-07T16:17:13;10.60;;;10.29;;
23668;SDS011;12011;47.422;15.018;2022-12-07T16:19:42;9.76;;;9.48;;
23668;SDS011;12011;47.422;15.018;2022-12-07T16:22:12;9.22;;;9.02;;
23668;SDS011;12011;47.422;15.018;2022-12-07T16:24:41;9.65;;;9.47;;
23668;SDS011;12011;47.422;15.018;2022-12-07T16:27:14;9.60;;;9.43;;
23668;SDS011;12011;47.422;15.018;2022-12-07T16:29:43;9.85;;;9.64;;
23668;SDS011;12011;47.422;15.018;2022-12-07T16:32:13;6.22;;;6.11;;
23668;SDS011;12011;47.422;15.018;2022-12-07T16:34:42;5.82;;;5.70;;
23668;SDS011;12011;47.422;15.018;2022-12-07T16:37:11;7.47;;;7.34;;
23668;SDS011;12011;47.422;15.018;2022-12-07T16:39:41;8.69;;;8.46;;